Check out our new PWSWeather beta!
PWSweather.com
Personal Weather Stations
Station Observations
REUBENS
Camas Prairie, Reubens, ID 83548

Camas PrairieReubens, ID 83548

Lat: 46.35417, Lon: -116.53167

Elevation: 3480

Station Type: Davis VantagePro 2

http://www.theobrienranch.com/wx/wx.htm

High Low Average
Temperature 34.2°F1.2°C 18.9°F-7.3°C 28.1°F-2.2°C
Dew Point 27.0°F-2.8°C 14.0°F-10.0°C 23.9°F-4.5°C
Winds 18.4 mph 29.6 kmh 1.2 mph 1.9 kmh 5.0 mph W8.0 kmh W
Wind Gusts 24.2 mph38.9 kmh 2.3 mph3.7 kmh 7.0 mph11.3 kmh
Humidity 94% 74% 84%
Pressure 30.57 in1035.2 mb 30.28 in1025.4 mb -
Precipitation 0.08 in2.0 mm - -
Hour Temp Dew Point Humidity Winds Wind Gusts Pressure Precip Precip Rate Daily Precip Total
12:00 AM 29.7°F-1.3°C 26.3°F-3.2°C 87% 13.8 mph W22.2 kmh W 16.1 mph25.9 kmh 30.29 in1025.7 mb - 0.00 in0.0 mm 0.00 in0.0 mm
12:15 AM 29.7°F-1.3°C 25.8°F-3.4°C 85% 11.5 mph W18.5 kmh W 13.8 mph22.2 kmh 30.28 in1025.4 mb - 0.00 in0.0 mm 0.00 in0.0 mm
12:30 AM 30.1°F-1.1°C 25.6°F-3.6°C 83% 15.0 mph W24.1 kmh W 21.9 mph35.2 kmh 30.28 in1025.4 mb - 0.00 in0.0 mm 0.00 in0.0 mm
12:45 AM 30.1°F-1.1°C 25.6°F-3.6°C 83% 18.4 mph W29.6 kmh W 24.2 mph38.9 kmh 30.28 in1025.4 mb - 0.00 in0.0 mm 0.00 in0.0 mm
01:00 AM 30.0°F-1.1°C 25.2°F-3.8°C 82% 11.5 mph W18.5 kmh W 15.0 mph24.1 kmh 30.28 in1025.4 mb - 0.00 in0.0 mm 0.00 in0.0 mm
01:15 AM 29.8°F-1.2°C 25.9°F-3.4°C 85% 10.4 mph W16.7 kmh W 12.7 mph20.4 kmh 30.30 in1026.1 mb - 0.00 in0.0 mm 0.00 in0.0 mm
01:30 AM 29.6°F-1.3°C 25.9°F-3.4°C 86% 8.1 mph WNW13.0 kmh WNW 9.2 mph14.8 kmh 30.30 in1026.1 mb - 0.00 in0.0 mm 0.00 in0.0 mm
01:45 AM 28.7°F-1.8°C 26.4°F-3.1°C 91% 10.4 mph WNW16.7 kmh WNW 17.3 mph27.8 kmh 30.30 in1026.1 mb - 0.00 in0.0 mm 0.00 in0.0 mm
02:00 AM 28.0°F-2.2°C 26.2°F-3.2°C 93% 3.5 mph WNW5.6 kmh WNW 4.6 mph7.4 kmh 30.31 in1026.4 mb - 0.00 in0.0 mm 0.00 in0.0 mm
02:15 AM 27.9°F-2.3°C 26.4°F-3.1°C 94% 3.5 mph WNW5.6 kmh WNW 3.5 mph5.6 kmh 30.30 in1026.1 mb - 0.00 in0.0 mm 0.00 in0.0 mm
02:30 AM 27.8°F-2.3°C 26.3°F-3.2°C 94% 4.6 mph WNW7.4 kmh WNW 5.8 mph9.3 kmh 30.31 in1026.4 mb - 0.00 in0.0 mm 0.00 in0.0 mm
02:45 AM 27.8°F-2.3°C 26.3°F-3.2°C 94% 11.5 mph W18.5 kmh W 16.1 mph25.9 kmh 30.31 in1026.4 mb - 0.00 in0.0 mm 0.00 in0.0 mm
03:00 AM 27.8°F-2.3°C 26.3°F-3.2°C 94% 4.6 mph WNW7.4 kmh WNW 5.8 mph9.3 kmh 30.31 in1026.4 mb - 0.00 in0.0 mm 0.00 in0.0 mm
03:15 AM 27.7°F-2.4°C 26.2°F-3.2°C 94% 3.5 mph NW5.6 kmh NW 3.5 mph5.6 kmh 30.30 in1026.1 mb - 0.00 in0.0 mm 0.00 in0.0 mm
03:30 AM 27.6°F-2.4°C 26.1°F-3.3°C 94% 3.5 mph NW5.6 kmh NW 4.6 mph7.4 kmh 30.30 in1026.1 mb - 0.00 in0.0 mm 0.00 in0.0 mm
03:45 AM 27.5°F-2.5°C 26.0°F-3.3°C 94% 4.6 mph WNW7.4 kmh WNW 4.6 mph7.4 kmh 30.30 in1026.1 mb - 0.00 in0.0 mm 0.00 in0.0 mm
04:00 AM 27.4°F-2.6°C 25.9°F-3.4°C 94% 4.6 mph WNW7.4 kmh WNW 5.8 mph9.3 kmh 30.30 in1026.1 mb - 0.00 in0.0 mm 0.00 in0.0 mm
04:15 AM 27.5°F-2.5°C 26.0°F-3.3°C 94% 3.5 mph WNW5.6 kmh WNW 4.6 mph7.4 kmh 30.32 in1026.8 mb - 0.00 in0.0 mm 0.00 in0.0 mm
04:30 AM 27.4°F-2.6°C 25.9°F-3.4°C 94% 3.5 mph WNW5.6 kmh WNW 4.6 mph7.4 kmh 30.32 in1026.8 mb - 0.00 in0.0 mm 0.00 in0.0 mm
04:45 AM 27.4°F-2.6°C 25.9°F-3.4°C 94% 5.8 mph WNW9.3 kmh WNW 9.2 mph14.8 kmh 30.32 in1026.8 mb - 0.00 in0.0 mm 0.00 in0.0 mm
05:00 AM 27.6°F-2.4°C 26.1°F-3.3°C 94% 4.6 mph WNW7.4 kmh WNW 9.2 mph14.8 kmh 30.32 in1026.8 mb - 0.00 in0.0 mm 0.00 in0.0 mm
05:15 AM 27.7°F-2.4°C 26.2°F-3.2°C 94% 3.5 mph WNW5.6 kmh WNW 4.6 mph7.4 kmh 30.32 in1026.8 mb - 0.00 in0.0 mm 0.00 in0.0 mm
05:30 AM 27.6°F-2.4°C 26.1°F-3.3°C 94% 5.8 mph W9.3 kmh W 10.4 mph16.7 kmh 30.32 in1026.8 mb - 0.00 in0.0 mm 0.00 in0.0 mm
05:45 AM 27.6°F-2.4°C 26.1°F-3.3°C 94% 2.3 mph NW3.7 kmh NW 3.5 mph5.6 kmh 30.33 in1027.1 mb - 0.00 in0.0 mm 0.00 in0.0 mm
06:00 AM 27.6°F-2.4°C 25.8°F-3.4°C 93% 3.5 mph WNW5.6 kmh WNW 4.6 mph7.4 kmh 30.33 in1027.1 mb - 0.00 in0.0 mm 0.00 in0.0 mm
06:15 AM 27.5°F-2.5°C 25.8°F-3.4°C 93% 2.3 mph NW3.7 kmh NW 3.5 mph5.6 kmh 30.33 in1027.1 mb - 0.00 in0.0 mm 0.00 in0.0 mm
06:30 AM 27.3°F-2.6°C 25.6°F-3.6°C 93% 5.8 mph WNW9.3 kmh WNW 10.4 mph16.7 kmh 30.34 in1027.4 mb - 0.00 in0.0 mm 0.00 in0.0 mm
06:45 AM 27.2°F-2.7°C 25.4°F-3.7°C 93% 6.9 mph WNW11.1 kmh WNW 9.2 mph14.8 kmh 30.35 in1027.8 mb - 0.00 in0.0 mm 0.00 in0.0 mm
07:00 AM 27.2°F-2.7°C 25.4°F-3.7°C 93% 2.3 mph NW3.7 kmh NW 3.5 mph5.6 kmh 30.36 in1028.1 mb - 0.00 in0.0 mm 0.00 in0.0 mm
07:15 AM 27.2°F-2.7°C 25.4°F-3.7°C 93% 2.3 mph WNW3.7 kmh WNW 3.5 mph5.6 kmh 30.36 in1028.1 mb - 0.00 in0.0 mm 0.00 in0.0 mm
07:30 AM 27.2°F-2.7°C 25.4°F-3.7°C 93% 2.3 mph NW3.7 kmh NW 9.2 mph14.8 kmh 30.37 in1028.4 mb - 0.00 in0.0 mm 0.00 in0.0 mm
07:45 AM 27.4°F-2.6°C 25.6°F-3.6°C 93% 2.3 mph NW3.7 kmh NW 3.5 mph5.6 kmh 30.38 in1028.8 mb - 0.00 in0.0 mm 0.00 in0.0 mm
08:00 AM 27.7°F-2.4°C 25.9°F-3.4°C 93% 2.3 mph WNW3.7 kmh WNW 3.5 mph5.6 kmh 30.38 in1028.8 mb - 0.00 in0.0 mm 0.00 in0.0 mm
08:15 AM 28.0°F-2.2°C 25.9°F-3.4°C 92% 2.3 mph WNW3.7 kmh WNW 5.8 mph9.3 kmh 30.38 in1028.8 mb - 0.00 in0.0 mm 0.00 in0.0 mm
08:30 AM 28.0°F-2.2°C 26.0°F-3.3°C 92% 2.3 mph NW3.7 kmh NW 3.5 mph5.6 kmh 30.39 in1029.1 mb - 0.00 in0.0 mm 0.00 in0.0 mm
08:45 AM 28.4°F-2.0°C 25.9°F-3.4°C 90% 3.5 mph WNW5.6 kmh WNW 3.5 mph5.6 kmh 30.39 in1029.1 mb - 0.00 in0.0 mm 0.00 in0.0 mm
09:00 AM 29.6°F-1.3°C 26.5°F-3.1°C 88% 3.5 mph NW5.6 kmh NW 4.6 mph7.4 kmh 30.39 in1029.1 mb - 0.00 in0.0 mm 0.00 in0.0 mm
09:15 AM 29.5°F-1.4°C 26.1°F-3.3°C 87% 4.6 mph WNW7.4 kmh WNW 5.8 mph9.3 kmh 30.40 in1029.5 mb - 0.00 in0.0 mm 0.00 in0.0 mm
09:30 AM 28.8°F-1.8°C 25.1°F-3.8°C 86% 15.0 mph W24.1 kmh W 19.6 mph31.5 kmh 30.41 in1029.8 mb - 0.00 in0.0 mm 0.00 in0.0 mm
09:45 AM 28.5°F-1.9°C 25.2°F-3.8°C 87% 5.8 mph WNW9.3 kmh WNW 11.5 mph18.5 kmh 30.41 in1029.8 mb - 0.01 in0.3 mm 0.01 in0.3 mm
10:00 AM 28.7°F-1.8°C 25.1°F-3.8°C 86% 4.6 mph WNW7.4 kmh WNW 11.5 mph18.5 kmh 30.41 in1029.8 mb - 0.01 in0.3 mm 0.01 in0.3 mm
10:15 AM 29.9°F-1.2°C 25.1°F-3.8°C 82% 5.8 mph WNW9.3 kmh WNW 5.8 mph9.3 kmh 30.41 in1029.8 mb - 0.01 in0.3 mm 0.01 in0.3 mm
10:30 AM 30.2°F-1.0°C 25.4°F-3.7°C 82% 5.8 mph WNW9.3 kmh WNW 5.8 mph9.3 kmh 30.42 in1030.1 mb - 0.02 in0.5 mm 0.02 in0.5 mm
10:45 AM 30.9°F-0.6°C 25.1°F-3.8°C 79% 16.1 mph W25.9 kmh W 18.4 mph29.6 kmh 30.42 in1030.1 mb - 0.01 in0.3 mm 0.02 in0.5 mm
11:00 AM 30.3°F-0.9°C 25.4°F-3.7°C 82% 9.2 mph WNW14.8 kmh WNW 11.5 mph18.5 kmh 30.43 in1030.5 mb - 0.02 in0.5 mm 0.03 in0.8 mm
11:15 AM 31.4°F-0.3°C 26.6°F-3.0°C 82% 6.9 mph WNW11.1 kmh WNW 6.9 mph11.1 kmh 30.43 in1030.5 mb - 0.02 in0.5 mm 0.03 in0.8 mm
11:30 AM 31.5°F-0.3°C 26.0°F-3.3°C 80% 5.8 mph WNW9.3 kmh WNW 11.5 mph18.5 kmh 30.43 in1030.5 mb - 0.01 in0.3 mm 0.03 in0.8 mm
11:45 AM 31.5°F-0.3°C 25.7°F-3.5°C 79% 5.8 mph WNW9.3 kmh WNW 8.1 mph13.0 kmh 30.43 in1030.5 mb - 0.01 in0.3 mm 0.03 in0.8 mm
12:00 PM 32.7°F0.4°C 26.6°F-3.0°C 78% 4.6 mph NW7.4 kmh NW 5.8 mph9.3 kmh 30.43 in1030.5 mb - 0.01 in0.3 mm 0.04 in1.0 mm
12:15 PM 33.6°F0.9°C 26.8°F-2.9°C 76% 3.5 mph NW5.6 kmh NW 5.8 mph9.3 kmh 30.42 in1030.1 mb - 0.01 in0.3 mm 0.04 in1.0 mm
12:30 PM 31.7°F-0.2°C 25.3°F-3.7°C 77% 4.6 mph WNW7.4 kmh WNW 9.2 mph14.8 kmh 30.43 in1030.5 mb - 0.01 in0.3 mm 0.04 in1.0 mm
12:45 PM 33.8°F1.0°C 27.0°F-2.8°C 76% 4.6 mph NW7.4 kmh NW 10.4 mph16.7 kmh 30.42 in1030.1 mb - 0.02 in0.5 mm 0.05 in1.3 mm
01:00 PM 32.5°F0.3°C 26.4°F-3.1°C 78% 3.5 mph WNW5.6 kmh WNW 4.6 mph7.4 kmh 30.43 in1030.5 mb - 0.01 in0.3 mm 0.05 in1.3 mm
01:15 PM 34.2°F1.2°C 26.7°F-2.9°C 74% 3.5 mph NW5.6 kmh NW 8.1 mph13.0 kmh 30.44 in1030.8 mb - 0.02 in0.5 mm 0.06 in1.5 mm
01:30 PM 33.5°F0.8°C 26.4°F-3.1°C 75% 4.6 mph NW7.4 kmh NW 5.8 mph9.3 kmh 30.43 in1030.5 mb - 0.02 in0.5 mm 0.06 in1.5 mm
01:45 PM 32.6°F0.3°C 25.2°F-3.8°C 74% 4.6 mph NW7.4 kmh NW 5.8 mph9.3 kmh 30.44 in1030.8 mb - 0.01 in0.3 mm 0.06 in1.5 mm
02:00 PM 31.3°F-0.4°C 25.5°F-3.6°C 79% 3.5 mph NW5.6 kmh NW 3.5 mph5.6 kmh 30.45 in1031.2 mb - 0.01 in0.3 mm 0.06 in1.5 mm
02:15 PM 32.8°F0.4°C 27.0°F-2.8°C 79% 4.6 mph NW7.4 kmh NW 5.8 mph9.3 kmh 30.45 in1031.2 mb - 0.00 in0.0 mm 0.06 in1.5 mm
02:30 PM 32.5°F0.3°C 26.1°F-3.3°C 77% 4.6 mph NW7.4 kmh NW 11.5 mph18.5 kmh 30.45 in1031.2 mb - 0.00 in0.0 mm 0.06 in1.5 mm
02:45 PM 33.1°F0.6°C 26.7°F-2.9°C 77% 1.2 mph NW1.9 kmh NW 3.5 mph5.6 kmh 30.45 in1031.2 mb - 0.01 in0.3 mm 0.07 in1.8 mm
03:00 PM 33.3°F0.7°C 26.2°F-3.2°C 75% 3.5 mph NW5.6 kmh NW 4.6 mph7.4 kmh 30.45 in1031.2 mb - 0.01 in0.3 mm 0.07 in1.8 mm
03:15 PM 31.8°F-0.1°C 25.1°F-3.8°C 76% 2.3 mph W3.7 kmh W 3.5 mph5.6 kmh 30.46 in1031.5 mb - 0.02 in0.5 mm 0.08 in2.0 mm
03:30 PM 31.2°F-0.4°C 24.8°F-4.0°C 77% 3.5 mph NW5.6 kmh NW 3.5 mph5.6 kmh 30.46 in1031.5 mb - 0.02 in0.5 mm 0.08 in2.0 mm
03:45 PM 29.6°F-1.3°C 23.9°F-4.5°C 79% 2.3 mph NW3.7 kmh NW 3.5 mph5.6 kmh 30.48 in1032.2 mb - 0.01 in0.3 mm 0.08 in2.0 mm
04:00 PM 32.3°F0.2°C 25.5°F-3.6°C 76% 3.5 mph W5.6 kmh W 6.9 mph11.1 kmh 30.47 in1031.8 mb - 0.01 in0.3 mm 0.08 in2.0 mm
04:15 PM 31.0°F-0.6°C 24.6°F-4.1°C 77% 6.9 mph W11.1 kmh W 9.2 mph14.8 kmh 30.47 in1031.8 mb - 0.00 in0.0 mm 0.08 in2.0 mm
04:30 PM 29.7°F-1.3°C 23.4°F-4.8°C 77% 3.5 mph WNW5.6 kmh WNW 4.6 mph7.4 kmh 30.47 in1031.8 mb - 0.00 in0.0 mm 0.08 in2.0 mm
04:45 PM 30.1°F-1.1°C 23.8°F-4.6°C 77% 3.5 mph WNW5.6 kmh WNW 4.6 mph7.4 kmh 30.47 in1031.8 mb - 0.00 in0.0 mm 0.08 in2.0 mm
05:00 PM 30.0°F-1.1°C 23.3°F-4.8°C 76% 2.3 mph NW3.7 kmh NW 3.5 mph5.6 kmh 30.47 in1031.8 mb - 0.00 in0.0 mm 0.08 in2.0 mm
05:15 PM 29.2°F-1.6°C 22.9°F-5.1°C 77% 2.3 mph NW3.7 kmh NW 3.5 mph5.6 kmh 30.48 in1032.2 mb - 0.00 in0.0 mm 0.08 in2.0 mm
05:30 PM 28.9°F-1.7°C 24.7°F-4.1°C 84% 6.9 mph WNW11.1 kmh WNW 11.5 mph18.5 kmh 30.49 in1032.5 mb - 0.00 in0.0 mm 0.08 in2.0 mm
05:45 PM 28.6°F-1.9°C 24.4°F-4.2°C 84% 2.3 mph NW3.7 kmh NW 3.5 mph5.6 kmh 30.49 in1032.5 mb - 0.00 in0.0 mm 0.08 in2.0 mm
06:00 PM 28.1°F-2.2°C 23.3°F-4.8°C 82% 1.2 mph NW1.9 kmh NW 2.3 mph3.7 kmh 30.49 in1032.5 mb - 0.00 in0.0 mm 0.08 in2.0 mm
06:15 PM 27.8°F-2.3°C 23.3°F-4.8°C 83% 2.3 mph NW3.7 kmh NW 3.5 mph5.6 kmh 30.51 in1033.2 mb - 0.00 in0.0 mm 0.08 in2.0 mm
06:30 PM 26.4°F-3.1°C 21.7°F-5.7°C 82% 3.5 mph W5.6 kmh W 4.6 mph7.4 kmh 30.51 in1033.2 mb - 0.00 in0.0 mm 0.08 in2.0 mm
06:45 PM 27.0°F-2.8°C 22.3°F-5.4°C 82% 9.2 mph WSW14.8 kmh WSW 11.5 mph18.5 kmh 30.51 in1033.2 mb - 0.00 in0.0 mm 0.08 in2.0 mm
07:00 PM 27.8°F-2.3°C 23.8°F-4.6°C 85% 6.9 mph WSW11.1 kmh WSW 9.2 mph14.8 kmh 30.51 in1033.2 mb - 0.00 in0.0 mm 0.08 in2.0 mm
07:15 PM 27.2°F-2.7°C 23.3°F-4.8°C 85% 5.8 mph WSW9.3 kmh WSW 6.9 mph11.1 kmh 30.51 in1033.2 mb - 0.00 in0.0 mm 0.08 in2.0 mm
07:30 PM 25.1°F-3.8°C 20.7°F-6.3°C 83% 6.9 mph SW11.1 kmh SW 8.1 mph13.0 kmh 30.52 in1033.5 mb - 0.00 in0.0 mm 0.08 in2.0 mm
07:45 PM 26.2°F-3.2°C 22.0°F-5.6°C 84% 6.9 mph WSW11.1 kmh WSW 6.9 mph11.1 kmh 30.51 in1033.2 mb - 0.00 in0.0 mm 0.08 in2.0 mm
08:00 PM 26.3°F-3.2°C 21.5°F-5.8°C 82% 5.8 mph WSW9.3 kmh WSW 6.9 mph11.1 kmh 30.51 in1033.2 mb - 0.00 in0.0 mm 0.08 in2.0 mm
08:15 PM 26.4°F-3.1°C 21.7°F-5.7°C 82% 5.8 mph WSW9.3 kmh WSW 5.8 mph9.3 kmh 30.51 in1033.2 mb - 0.00 in0.0 mm 0.08 in2.0 mm
08:30 PM 26.6°F-3.0°C 20.9°F-6.2°C 79% 5.8 mph WSW9.3 kmh WSW 5.8 mph9.3 kmh 30.51 in1033.2 mb - 0.00 in0.0 mm 0.08 in2.0 mm
08:45 PM 23.1°F-4.9°C 18.4°F-7.6°C 82% 3.5 mph SW5.6 kmh SW 3.5 mph5.6 kmh 30.53 in1033.9 mb - 0.00 in0.0 mm 0.08 in2.0 mm
09:00 PM 20.3°F-6.5°C 15.6°F-9.1°C 82% 3.5 mph SW5.6 kmh SW 3.5 mph5.6 kmh 30.55 in1034.5 mb - 0.00 in0.0 mm 0.08 in2.0 mm
09:15 PM 21.3°F-5.9°C 16.7°F-8.5°C 82% 5.8 mph SW9.3 kmh SW 4.6 mph7.4 kmh 30.55 in1034.5 mb - 0.00 in0.0 mm 0.08 in2.0 mm
09:30 PM 20.4°F-6.4°C 14.6°F-9.7°C 78% 8.1 mph SSW13.0 kmh SSW 11.5 mph18.5 kmh 30.55 in1034.5 mb - 0.00 in0.0 mm 0.08 in2.0 mm
09:45 PM 21.2°F-6.0°C 15.4°F-9.2°C 78% 4.6 mph SW7.4 kmh SW 5.8 mph9.3 kmh 30.55 in1034.5 mb - 0.00 in0.0 mm 0.08 in2.0 mm
10:00 PM 19.5°F-6.9°C 14.1°F-9.9°C 79% 5.8 mph SW9.3 kmh SW 4.6 mph7.4 kmh 30.56 in1034.9 mb - 0.00 in0.0 mm 0.08 in2.0 mm
10:15 PM 18.9°F-7.3°C 14.0°F-10.0°C 81% 3.5 mph SW5.6 kmh SW 3.5 mph5.6 kmh 30.57 in1035.2 mb - 0.00 in0.0 mm 0.08 in2.0 mm
10:30 PM 19.6°F-6.9°C 14.4°F-9.8°C 80% 4.6 mph SW7.4 kmh SW 4.6 mph7.4 kmh 30.55 in1034.5 mb - 0.00 in0.0 mm 0.08 in2.0 mm
10:45 PM 20.2°F-6.6°C 14.7°F-9.6°C 79% 5.8 mph SW9.3 kmh SW 5.8 mph9.3 kmh 30.55 in1034.5 mb - 0.00 in0.0 mm 0.08 in2.0 mm
11:00 PM 19.7°F-6.8°C 14.9°F-9.5°C 81% 4.6 mph WSW7.4 kmh WSW 5.8 mph9.3 kmh 30.55 in1034.5 mb - 0.00 in0.0 mm 0.08 in2.0 mm
11:15 PM 21.2°F-6.0°C 15.4°F-9.2°C 78% 3.5 mph WSW5.6 kmh WSW 4.6 mph7.4 kmh 30.54 in1034.2 mb - 0.00 in0.0 mm 0.08 in2.0 mm
11:30 PM 21.7°F-5.7°C 15.9°F-8.9°C 78% 3.5 mph WSW5.6 kmh WSW 3.5 mph5.6 kmh 30.53 in1033.9 mb - 0.00 in0.0 mm 0.08 in2.0 mm
11:45 PM 19.6°F-6.9°C 14.5°F-9.7°C 80% 4.6 mph SW7.4 kmh SW 4.6 mph7.4 kmh 30.54 in1034.2 mb - 0.00 in0.0 mm 0.08 in2.0 mm